createdAt,value
2019-02-16T00:00:37.108Z,10.00
2019-02-16T00:03:04.131Z,12.00
2019-02-16T00:05:31.038Z,9.70
2019-02-16T00:07:58.073Z,12.37
2019-02-16T00:10:24.999Z,9.73
2019-02-16T00:12:51.936Z,10.33
2019-02-16T00:15:18.842Z,8.40
2019-02-16T00:17:45.807Z,8.10
2019-02-16T00:20:12.724Z,8.83
2019-02-16T00:22:39.671Z,10.30
2019-02-16T00:25:06.592Z,8.17
2019-02-16T00:27:33.590Z,9.73
2019-02-16T00:30:00.545Z,7.33
2019-02-16T00:32:27.445Z,9.30
2019-02-16T00:34:54.372Z,10.17
2019-02-16T00:37:21.276Z,11.57
2019-02-16T00:39:48.216Z,8.80
2019-02-16T00:42:15.120Z,7.03
2019-02-16T00:44:42.042Z,7.27
2019-02-16T00:47:08.931Z,9.60
2019-02-16T00:49:35.889Z,6.37
2019-02-16T00:52:02.803Z,5.53
2019-02-16T00:54:29.719Z,6.33
2019-02-16T00:56:56.623Z,8.57
2019-02-16T00:59:24.394Z,9.37
2019-02-16T01:01:51.312Z,7.13
2019-02-16T01:04:18.279Z,7.27
2019-02-16T01:06:45.189Z,11.20
2019-02-16T01:09:12.124Z,7.67
2019-02-16T01:11:39.025Z,9.93
2019-02-16T01:14:05.990Z,8.40
2019-02-16T01:16:33.203Z,6.50
2019-02-16T01:19:00.149Z,5.80
2019-02-16T01:21:27.057Z,14.47
2019-02-16T01:23:53.996Z,8.20
2019-02-16T01:26:20.970Z,8.83
2019-02-16T01:28:48.067Z,6.60
2019-02-16T01:31:14.938Z,6.73
2019-02-16T01:33:41.841Z,7.47
2019-02-16T01:36:08.782Z,7.60
2019-02-16T01:38:35.695Z,8.10
2019-02-16T01:41:02.610Z,6.80
2019-02-16T01:43:29.499Z,5.90
2019-02-16T01:45:56.455Z,8.60
2019-02-16T01:48:23.375Z,6.83
2019-02-16T01:50:50.318Z,6.90
2019-02-16T01:53:17.229Z,6.47
2019-02-16T01:55:44.221Z,9.40
2019-02-16T01:58:11.143Z,10.00
2019-02-16T02:00:38.095Z,7.83
2019-02-16T02:03:04.996Z,9.07
2019-02-16T02:05:31.952Z,7.50
2019-02-16T02:07:58.840Z,9.23
2019-02-16T02:10:25.945Z,8.00
2019-02-16T02:12:52.848Z,9.20
2019-02-16T02:15:19.794Z,8.77
2019-02-16T02:17:46.736Z,8.87
2019-02-16T02:20:13.675Z,8.70
2019-02-16T02:22:40.573Z,10.33
2019-02-16T02:25:08.876Z,9.67
2019-02-16T02:27:35.785Z,6.57
2019-02-16T02:30:02.822Z,7.73
2019-02-16T02:32:29.733Z,9.33
2019-02-16T02:34:56.682Z,9.40
2019-02-16T02:37:23.636Z,6.23
2019-02-16T02:39:50.614Z,8.57
2019-02-16T02:42:17.530Z,10.03
2019-02-16T02:44:44.621Z,9.83
2019-02-16T02:47:11.513Z,9.23
2019-02-16T02:49:38.444Z,6.97
2019-02-16T02:52:05.456Z,8.53
2019-02-16T02:54:32.352Z,8.60
2019-02-16T02:56:59.310Z,10.33
2019-02-16T02:59:26.220Z,11.60
2019-02-16T03:01:53.159Z,9.57
2019-02-16T03:04:20.031Z,7.03
2019-02-16T03:06:46.983Z,8.40
2019-02-16T03:09:13.897Z,14.47
2019-02-16T03:11:40.813Z,10.33
2019-02-16T03:14:07.685Z,7.10
2019-02-16T03:16:34.585Z,10.40
2019-02-16T03:19:01.518Z,10.10
2019-02-16T03:21:28.440Z,8.40
2019-02-16T03:23:55.342Z,13.93
2019-02-16T03:27:04.387Z,12.60
2019-02-16T03:29:48.910Z,7.83
2019-02-16T03:32:50.668Z,8.00
2019-02-16T03:36:11.321Z,9.33
2019-02-16T03:38:57.925Z,8.80
2019-02-16T03:41:24.841Z,8.50
2019-02-16T03:43:51.721Z,7.30
2019-02-16T03:46:18.653Z,8.07
2019-02-16T03:48:45.541Z,7.70
2019-02-16T03:51:12.470Z,9.23
2019-02-16T03:53:39.361Z,8.60
2019-02-16T03:56:06.238Z,8.73
2019-02-16T03:58:33.148Z,6.77
2019-02-16T04:01:00.028Z,9.03
2019-02-16T04:03:26.978Z,7.70
2019-02-16T04:05:53.846Z,6.00
2019-02-16T04:08:20.777Z,12.57
2019-02-16T04:10:47.660Z,6.23
2019-02-16T04:13:14.584Z,9.70
2019-02-16T04:15:41.672Z,6.87
2019-02-16T04:18:08.614Z,6.47
2019-02-16T04:20:35.520Z,13.50
2019-02-16T04:23:02.453Z,8.57
2019-02-16T04:25:29.334Z,7.20
2019-02-16T04:27:56.267Z,9.17
2019-02-16T04:30:23.151Z,8.20
2019-02-16T04:32:50.083Z,6.70
2019-02-16T04:35:16.962Z,6.77
2019-02-16T04:37:43.878Z,13.57
2019-02-16T04:40:10.755Z,8.23
2019-02-16T04:42:37.704Z,9.63
2019-02-16T04:45:04.613Z,10.07
2019-02-16T04:47:31.521Z,9.27
2019-02-16T04:49:58.403Z,11.03
2019-02-16T04:52:34.344Z,10.70
2019-02-16T04:54:54.091Z,7.97
2019-02-16T04:57:21.239Z,8.53
2019-02-16T04:59:48.358Z,10.07
2019-02-16T05:02:15.272Z,9.07
2019-02-16T05:04:42.155Z,10.67
2019-02-16T05:07:09.066Z,9.13
2019-02-16T05:09:35.937Z,8.93
2019-02-16T05:12:02.840Z,7.30
2019-02-16T05:14:29.980Z,13.47
2019-02-16T05:16:56.905Z,10.70
2019-02-16T05:19:23.842Z,14.80
2019-02-16T05:21:50.758Z,10.80
2019-02-16T05:24:17.757Z,12.60
2019-02-16T05:26:44.663Z,14.10
2019-02-16T05:29:11.606Z,12.93
2019-02-16T05:31:38.501Z,13.20
2019-02-16T05:34:05.418Z,14.03
2019-02-16T05:36:32.323Z,13.00
2019-02-16T05:38:59.249Z,14.77
2019-02-16T05:41:26.152Z,12.80
2019-02-16T05:43:53.088Z,16.50
2019-02-16T05:46:19.981Z,11.77
2019-02-16T05:48:46.900Z,14.13
2019-02-16T05:51:13.963Z,13.57
2019-02-16T05:53:40.900Z,14.97
2019-02-16T05:56:07.801Z,13.20
2019-02-16T05:58:34.721Z,12.83
2019-02-16T06:01:01.655Z,10.60
2019-02-16T06:03:28.750Z,10.80
2019-02-16T06:05:55.740Z,16.40
2019-02-16T06:08:22.652Z,10.90
2019-02-16T06:10:49.542Z,12.77
2019-02-16T06:13:16.479Z,15.53
2019-02-16T06:15:43.651Z,10.70
2019-02-16T06:18:10.704Z,10.83
2019-02-16T06:20:37.629Z,11.23
2019-02-16T06:23:04.981Z,11.70
2019-02-16T06:25:32.011Z,9.30
2019-02-16T06:27:58.902Z,11.00
2019-02-16T06:30:26.471Z,6.93
2019-02-16T06:32:53.360Z,10.30
2019-02-16T06:35:26.816Z,11.20
2019-02-16T06:37:53.704Z,12.93
2019-02-16T06:40:20.625Z,15.17
2019-02-16T06:42:47.505Z,10.40
2019-02-16T06:45:14.426Z,9.00
2019-02-16T06:47:41.320Z,10.80
2019-02-16T06:50:08.232Z,10.50
2019-02-16T06:52:35.124Z,10.37
2019-02-16T06:55:02.059Z,11.07
2019-02-16T06:57:32.901Z,8.90
2019-02-16T06:59:59.811Z,9.87
2019-02-16T07:02:28.816Z,11.80
2019-02-16T07:04:55.743Z,9.53
2019-02-16T07:07:22.621Z,12.07
2019-02-16T07:09:49.532Z,16.30
2019-02-16T07:12:16.470Z,11.70
2019-02-16T07:14:43.422Z,10.23
2019-02-16T07:17:32.735Z,10.43
2019-02-16T07:20:00.027Z,13.80
2019-02-16T07:22:26.892Z,12.57
2019-02-16T07:24:53.868Z,13.23
2019-02-16T07:27:20.753Z,20.80
2019-02-16T07:29:47.675Z,12.20
2019-02-16T07:32:14.559Z,14.53
2019-02-16T07:34:41.484Z,17.97
2019-02-16T07:37:08.368Z,16.97
2019-02-16T07:39:35.303Z,13.77
2019-02-16T07:42:02.523Z,17.50
2019-02-16T07:44:47.979Z,17.87
2019-02-16T07:47:32.902Z,18.37
2019-02-16T07:50:08.432Z,15.97
2019-02-16T07:52:53.535Z,16.70
2019-02-16T07:55:27.255Z,16.63
2019-02-16T07:58:12.303Z,19.77
2019-02-16T08:00:50.076Z,24.67
2019-02-16T08:03:35.337Z,21.30
2019-02-16T08:06:12.839Z,20.77
2019-02-16T08:08:58.064Z,16.70
2019-02-16T08:11:38.167Z,17.77
2019-02-16T08:14:24.167Z,16.17
2019-02-16T08:16:59.194Z,14.03
2019-02-16T08:19:51.606Z,13.70
2019-02-16T08:22:35.696Z,9.97
2019-02-16T08:25:31.094Z,13.30
2019-02-16T08:28:16.750Z,9.90
2019-02-16T08:31:01.546Z,9.97
2019-02-16T08:34:03.200Z,11.43
2019-02-16T08:36:45.955Z,16.60
2019-02-16T08:39:20.098Z,15.23
2019-02-16T08:42:05.012Z,10.73
2019-02-16T08:44:45.054Z,9.30
2019-02-16T08:47:20.400Z,12.47
2019-02-16T08:50:06.663Z,8.43
2019-02-16T08:53:08.390Z,11.40
2019-02-16T08:55:57.730Z,9.33
2019-02-16T08:58:38.673Z,7.57
2019-02-16T09:01:31.240Z,7.80
2019-02-16T09:04:16.144Z,10.70
2019-02-16T09:07:01.114Z,7.20
2019-02-16T09:10:03.029Z,12.77
2019-02-16T09:12:44.227Z,10.30
2019-02-16T09:15:33.627Z,10.47
2019-02-16T09:18:22.744Z,9.63
2019-02-16T09:21:14.506Z,11.30
2019-02-16T09:24:03.816Z,9.03
2019-02-16T09:26:59.177Z,9.10
2019-02-16T09:29:35.116Z,11.37
2019-02-16T09:32:20.061Z,9.80
2019-02-16T09:34:57.970Z,9.33
2019-02-16T09:37:46.744Z,8.73
2019-02-16T09:40:32.099Z,6.70
2019-02-16T09:43:21.246Z,10.33
2019-02-16T09:46:10.636Z,8.03
2019-02-16T09:48:56.964Z,9.57
2019-02-16T09:51:31.465Z,6.50
2019-02-16T09:54:11.002Z,11.30
2019-02-16T09:56:55.588Z,10.87
2019-02-16T09:59:31.865Z,8.40
2019-02-16T10:02:16.791Z,6.90
2019-02-16T10:04:52.544Z,8.17
2019-02-16T10:07:36.320Z,15.70
2019-02-16T10:10:23.206Z,8.17
2019-02-16T10:13:15.341Z,10.43
2019-02-16T10:16:01.864Z,11.50
2019-02-16T10:18:44.902Z,11.70
2019-02-16T10:21:37.203Z,6.97
2019-02-16T10:24:23.765Z,9.53
2019-02-16T10:27:06.550Z,10.07
2019-02-16T10:29:57.036Z,10.43
2019-02-16T10:32:47.247Z,13.93
2019-02-16T10:35:25.150Z,11.60
2019-02-16T10:38:09.303Z,14.83
2019-02-16T10:41:07.975Z,10.43
2019-02-16T10:43:47.013Z,10.97
2019-02-16T10:46:32.021Z,9.23
2019-02-16T10:49:20.442Z,9.40
2019-02-16T10:52:05.661Z,11.87
2019-02-16T10:54:54.502Z,11.73
2019-02-16T10:57:56.215Z,12.20
2019-02-16T11:00:32.739Z,13.47
2019-02-16T11:03:19.313Z,11.70
2019-02-16T11:06:04.754Z,14.57
2019-02-16T11:08:38.091Z,12.30
2019-02-16T11:11:23.245Z,16.80
2019-02-16T11:14:08.193Z,13.77
2019-02-16T11:17:06.601Z,12.20
2019-02-16T11:19:46.046Z,16.80
2019-02-16T11:22:39.928Z,14.03
2019-02-16T11:25:24.993Z,16.10
2019-02-16T11:28:02.491Z,15.00
2019-02-16T11:30:47.766Z,17.60
2019-02-16T11:33:25.444Z,17.70
2019-02-16T11:36:02.012Z,18.33
2019-02-16T11:38:39.405Z,16.40
2019-02-16T11:41:18.936Z,16.40
2019-02-16T11:44:10.740Z,25.63
2019-02-16T11:47:03.043Z,18.27
2019-02-16T11:49:44.510Z,17.70
2019-02-16T11:52:29.396Z,18.00
2019-02-16T11:55:21.423Z,16.77
2019-02-16T11:58:16.825Z,15.67
2019-02-16T12:01:02.023Z,15.93
2019-02-16T12:03:48.599Z,20.87
2019-02-16T12:06:38.462Z,20.00
2019-02-16T12:09:23.825Z,17.83
2019-02-16T12:12:12.959Z,18.07
2019-02-16T12:14:58.268Z,13.73
2019-02-16T12:17:54.228Z,19.47
2019-02-16T12:20:46.871Z,15.83
2019-02-16T12:23:23.729Z,19.33
2019-02-16T12:26:04.628Z,17.90
2019-02-16T12:29:00.010Z,17.77
2019-02-16T12:31:49.338Z,18.33
2019-02-16T12:34:35.939Z,18.40
2019-02-16T12:37:11.649Z,19.33
2019-02-16T12:40:13.556Z,16.07
2019-02-16T12:42:50.384Z,18.03
2019-02-16T12:45:35.579Z,20.80
2019-02-16T12:48:22.106Z,18.37
2019-02-16T12:51:14.720Z,16.93
2019-02-16T12:53:53.839Z,17.53
2019-02-16T12:56:42.006Z,19.53
2019-02-16T12:59:23.797Z,14.87
2019-02-16T13:02:16.888Z,19.73
2019-02-16T13:04:54.578Z,19.53
2019-02-16T13:07:32.609Z,17.80
2019-02-16T13:10:19.167Z,20.50
2019-02-16T13:13:23.894Z,20.30
2019-02-16T13:16:01.909Z,22.60
2019-02-16T13:18:36.099Z,17.87
2019-02-16T13:21:18.130Z,19.97
2019-02-16T13:24:20.223Z,18.53
2019-02-16T13:27:15.554Z,21.23
2019-02-16T13:30:11.023Z,20.60
2019-02-16T13:33:08.234Z,21.10
2019-02-16T13:35:40.141Z,17.73
2019-02-16T13:38:15.691Z,16.30
2019-02-16T13:41:02.638Z,21.53
2019-02-16T13:43:51.998Z,17.43
2019-02-16T13:46:37.371Z,21.27
2019-02-16T13:49:17.783Z,19.33
2019-02-16T13:51:57.972Z,21.10
2019-02-16T13:54:59.596Z,19.00
2019-02-16T13:57:48.798Z,21.00
2019-02-16T14:00:21.889Z,17.63
2019-02-16T14:03:17.257Z,26.00
2019-02-16T14:06:05.958Z,18.93
2019-02-16T14:08:58.087Z,19.17
2019-02-16T14:11:41.212Z,17.00
2019-02-16T14:14:27.803Z,18.67
2019-02-16T14:17:03.739Z,19.63
2019-02-16T14:19:30.824Z,16.37
2019-02-16T14:21:57.786Z,18.80
2019-02-16T14:24:40.243Z,19.40
2019-02-16T14:27:07.189Z,17.83
2019-02-16T14:29:34.117Z,22.20
2019-02-16T14:32:03.095Z,14.77
2019-02-16T14:34:29.859Z,21.57
2019-02-16T14:36:56.801Z,15.23
2019-02-16T14:39:31.043Z,16.50
2019-02-16T14:41:57.987Z,17.97
2019-02-16T14:44:24.944Z,20.67
2019-02-16T14:46:51.880Z,17.33
2019-02-16T14:49:18.789Z,16.97
2019-02-16T14:51:45.739Z,17.07
2019-02-16T14:54:12.654Z,23.63
2019-02-16T14:56:39.589Z,16.17
2019-02-16T14:59:06.535Z,17.23
2019-02-16T15:01:33.552Z,21.17
2019-02-16T15:04:00.523Z,23.47
2019-02-16T15:06:27.563Z,27.47
2019-02-16T15:08:54.486Z,27.30
2019-02-16T15:11:21.402Z,19.20
2019-02-16T15:13:48.375Z,19.73
2019-02-16T15:16:15.294Z,18.40
2019-02-16T15:18:42.292Z,21.83
2019-02-16T15:21:09.202Z,19.07
2019-02-16T15:23:36.183Z,19.33
2019-02-16T15:26:03.203Z,16.80
2019-02-16T15:28:30.151Z,15.53
2019-02-16T15:30:57.053Z,19.00
2019-02-16T15:33:24.012Z,19.17
2019-02-16T15:35:50.925Z,19.27
2019-02-16T15:38:17.873Z,18.20
2019-02-16T15:40:44.798Z,18.93
2019-02-16T15:43:11.729Z,17.20
2019-02-16T15:45:38.746Z,24.70
2019-02-16T15:48:05.684Z,22.10
2019-02-16T15:50:32.612Z,17.47
2019-02-16T15:52:59.544Z,20.80
2019-02-16T15:55:26.453Z,16.03
2019-02-16T15:57:53.398Z,18.53
2019-02-16T16:00:22.987Z,18.43
2019-02-16T16:02:49.955Z,20.13
2019-02-16T16:05:16.866Z,16.77
2019-02-16T16:07:46.832Z,25.90
2019-02-16T16:10:28.910Z,16.03
2019-02-16T16:13:06.652Z,20.10
2019-02-16T16:15:52.402Z,18.17
2019-02-16T16:18:29.255Z,25.43
2019-02-16T16:21:14.491Z,19.20
2019-02-16T16:24:01.307Z,22.93
2019-02-16T16:26:44.484Z,21.47
2019-02-16T16:29:36.849Z,18.40
2019-02-16T16:32:27.064Z,20.53
2019-02-16T16:35:13.571Z,22.83
2019-02-16T16:37:59.214Z,18.90
2019-02-16T16:41:04.126Z,22.30
2019-02-16T16:43:53.725Z,18.80
2019-02-16T16:46:38.798Z,18.07
2019-02-16T16:49:34.410Z,15.83
2019-02-16T16:52:23.759Z,16.43
2019-02-16T16:54:58.452Z,17.80
2019-02-16T16:57:31.731Z,19.80
2019-02-16T17:00:18.297Z,17.53
2019-02-16T17:03:03.725Z,21.93
2019-02-16T17:05:53.083Z,19.83
2019-02-16T17:08:47.036Z,17.10
2019-02-16T17:11:32.325Z,25.70
2019-02-16T17:14:21.782Z,21.00
2019-02-16T17:17:16.891Z,21.57
2019-02-16T17:19:50.518Z,19.97
2019-02-16T17:22:42.899Z,21.30
2019-02-16T17:25:28.366Z,22.37
2019-02-16T17:28:21.257Z,21.40
2019-02-16T17:31:25.963Z,26.93
2019-02-16T17:34:11.431Z,25.37
2019-02-16T17:37:00.855Z,34.80
2019-02-16T17:39:38.412Z,34.50
2019-02-16T17:42:27.758Z,29.23
2019-02-16T17:45:14.377Z,27.17
2019-02-16T17:48:00.231Z,24.43
2019-02-16T17:50:45.763Z,29.10
2019-02-16T17:53:26.752Z,23.77
2019-02-16T17:56:05.143Z,29.83
2019-02-16T17:58:43.282Z,29.53
2019-02-16T18:01:35.833Z,27.73
2019-02-16T18:04:21.123Z,29.87
2019-02-16T18:07:16.261Z,27.50
2019-02-16T18:10:10.046Z,26.57
2019-02-16T18:12:57.026Z,30.47
2019-02-16T18:15:43.801Z,28.83
2019-02-16T18:18:19.372Z,33.30
2019-02-16T18:21:05.938Z,27.13
2019-02-16T18:23:47.051Z,36.30
2019-02-16T18:26:36.620Z,32.80
2019-02-16T18:29:21.874Z,33.83
2019-02-16T18:32:02.208Z,31.80
2019-02-16T18:34:40.536Z,33.33
2019-02-16T18:37:16.952Z,33.97
2019-02-16T18:40:08.154Z,36.20
2019-02-16T18:42:52.113Z,41.63
2019-02-16T18:45:31.685Z,39.37
2019-02-16T18:48:17.034Z,42.30
2019-02-16T18:51:12.389Z,43.47
2019-02-16T18:54:01.694Z,38.67
2019-02-16T18:56:48.297Z,43.43
2019-02-16T18:59:43.649Z,36.87
2019-02-16T19:02:36.006Z,35.83
2019-02-16T19:05:19.651Z,41.33
2019-02-16T19:07:54.799Z,45.20
2019-02-16T19:10:31.051Z,48.40
2019-02-16T19:13:20.155Z,45.07
2019-02-16T19:16:00.273Z,42.00
2019-02-16T19:18:40.358Z,42.67
2019-02-16T19:21:23.146Z,46.43
2019-02-16T19:24:07.081Z,47.20
2019-02-16T19:26:46.946Z,45.50
2019-02-16T19:29:33.564Z,42.57
2019-02-16T19:32:08.481Z,52.83
2019-02-16T19:34:41.567Z,48.07
2019-02-16T19:37:17.213Z,50.87
2019-02-16T19:39:53.756Z,48.77
2019-02-16T19:42:39.007Z,51.07
2019-02-16T19:45:24.467Z,55.43
2019-02-16T19:48:08.720Z,50.63
2019-02-16T19:51:01.609Z,45.93
2019-02-16T19:53:41.581Z,54.17
2019-02-16T19:56:30.264Z,46.00
2019-02-16T19:59:19.731Z,51.53
2019-02-16T20:02:05.180Z,50.67
2019-02-16T20:05:00.391Z,52.00
2019-02-16T20:07:45.078Z,44.93
2019-02-16T20:10:30.636Z,44.93
2019-02-16T20:13:16.234Z,55.73
2019-02-16T20:15:51.547Z,49.97
2019-02-16T20:18:38.206Z,45.43
2019-02-16T20:21:15.805Z,52.57
2019-02-16T20:24:02.591Z,42.23
2019-02-16T20:26:46.272Z,48.00
2019-02-16T20:29:21.352Z,42.53
2019-02-16T20:32:20.056Z,77.07
2019-02-16T20:35:11.363Z,53.83
2019-02-16T20:38:03.761Z,47.73
2019-02-16T20:41:05.387Z,47.30
2019-02-16T20:43:45.531Z,45.60
2019-02-16T20:46:27.484Z,47.00
2019-02-16T20:49:05.550Z,40.00
2019-02-16T20:51:41.776Z,42.93
2019-02-16T20:54:34.542Z,40.97
2019-02-16T20:57:27.154Z,41.33
2019-02-16T21:00:26.184Z,43.20
2019-02-16T21:03:16.498Z,37.80
2019-02-16T21:06:03.037Z,37.30
2019-02-16T21:08:39.301Z,41.00
2019-02-16T21:11:24.784Z,48.03
2019-02-16T21:14:11.361Z,37.53
2019-02-16T21:16:56.700Z,38.53
2019-02-16T21:19:39.633Z,52.30
2019-02-16T21:22:24.489Z,43.03
2019-02-16T21:25:06.993Z,45.00
2019-02-16T21:27:58.049Z,40.20
2019-02-16T21:30:45.661Z,46.53
2019-02-16T21:33:23.451Z,46.17
2019-02-16T21:36:08.863Z,40.33
2019-02-16T21:38:47.114Z,36.67
2019-02-16T21:41:28.600Z,42.70
2019-02-16T21:44:02.947Z,36.07
2019-02-16T21:46:55.495Z,37.63
2019-02-16T21:49:29.982Z,41.10
2019-02-16T21:52:19.035Z,37.67
2019-02-16T21:55:08.627Z,39.37
2019-02-16T21:58:10.359Z,40.60
2019-02-16T22:00:59.685Z,40.43
2019-02-16T22:03:49.055Z,35.57
2019-02-16T22:06:35.560Z,41.33
2019-02-16T22:09:21.406Z,37.63
2019-02-16T22:12:00.249Z,38.70
2019-02-16T22:14:27.178Z,34.03
2019-02-16T22:16:54.062Z,42.20
2019-02-16T22:19:21.021Z,35.60
2019-02-16T22:21:47.935Z,45.50
2019-02-16T22:24:14.869Z,42.37
2019-02-16T22:26:41.804Z,40.53
2019-02-16T22:29:08.723Z,47.77
2019-02-16T22:31:35.633Z,48.37
2019-02-16T22:34:02.640Z,51.77
2019-02-16T22:36:29.535Z,45.37
2019-02-16T22:38:56.777Z,47.23
2019-02-16T22:41:23.681Z,47.53
2019-02-16T22:43:50.622Z,43.80
2019-02-16T22:46:17.532Z,36.30
2019-02-16T22:48:44.435Z,41.57
2019-02-16T22:51:11.364Z,34.20
2019-02-16T22:53:38.254Z,33.60
2019-02-16T22:56:05.247Z,36.57
2019-02-16T22:58:32.151Z,38.83
2019-02-16T23:00:59.476Z,37.17
2019-02-16T23:03:26.393Z,32.00
2019-02-16T23:05:53.321Z,36.43
2019-02-16T23:08:20.203Z,32.77
2019-02-16T23:10:47.120Z,29.97
2019-02-16T23:13:14.014Z,31.67
2019-02-16T23:15:40.975Z,32.83
2019-02-16T23:18:07.890Z,36.13
2019-02-16T23:20:34.894Z,37.40
2019-02-16T23:23:01.782Z,32.73
2019-02-16T23:25:28.683Z,32.47
2019-02-16T23:27:55.580Z,30.13
2019-02-16T23:30:22.543Z,30.77
2019-02-16T23:32:49.446Z,27.67
2019-02-16T23:35:16.369Z,29.30
2019-02-16T23:37:43.243Z,26.67
2019-02-16T23:40:10.186Z,30.07
2019-02-16T23:42:37.091Z,31.23
2019-02-16T23:45:04.357Z,29.23
2019-02-16T23:47:31.272Z,32.47
2019-02-16T23:49:58.209Z,30.43
2019-02-16T23:52:25.265Z,33.70
2019-02-16T23:54:52.168Z,31.63
2019-02-16T23:57:19.050Z,32.00
2019-02-16T23:59:45.952Z,38.00
